Time;durP1;ratioP1;P1;durP2;ratioP2;P2;SDS_P1;SDS_P2;PMS_P1;PMS_P2;Temp;Humidity;BMP_temperature;BMP_pressure;BME280_temperature;BME280_humidity;BME280_pressure;Samples;Min_cycle;Max_cycle;Signal;HPM_P1;HPM_P2
2023/10/21 00:02:21;;;;;;;4.82;1.45;;;;;;;20.77;53.34;97845.00;4995662;28;20030;-80
2023/10/21 00:04:46;;;;;;;4.03;1.10;;;;;;;20.78;53.41;97845.84;4967938;28;20102;-79
2023/10/21 00:07:11;;;;;;;6.63;1.50;;;;;;;20.76;53.32;97847.78;4967454;28;20029;-79
2023/10/21 00:09:37;;;;;;;5.95;1.60;;;;;;;20.75;53.25;97851.41;4975848;28;20495;-80
2023/10/21 00:12:02;;;;;;;4.75;1.25;;;;;;;20.77;53.42;97860.06;4976334;28;20031;-79
2023/10/21 00:14:28;;;;;;;5.53;1.45;;;;;;;20.79;53.36;97858.13;4976049;28;20031;-80
2023/10/21 00:16:53;;;;;;;6.93;1.45;;;;;;;20.75;53.52;97862.00;4979512;28;20093;-80
2023/10/21 00:19:19;;;;;;;4.63;1.15;;;;;;;20.74;53.35;97865.63;4983076;28;20077;-80
2023/10/21 00:21:44;;;;;;;6.15;1.85;;;;;;;20.77;53.41;97860.06;4976007;28;20019;-79
2023/10/21 00:24:10;;;;;;;4.80;1.25;;;;;;;20.77;53.25;97857.41;4975820;28;20078;-79
2023/10/21 00:26:49;;;;;;;6.60;1.23;;;;;;;20.78;53.21;97854.63;4959721;28;20481;-79
2023/10/21 00:29:15;;;;;;;5.97;1.27;;;;;;;20.78;53.26;97861.75;4982308;28;20031;-80
2023/10/21 00:31:42;;;;;;;4.15;1.00;;;;;;;20.75;53.30;97867.31;4975956;28;20147;-79
2023/10/21 00:34:07;;;;;;;5.03;1.40;;;;;;;20.78;53.16;97865.22;4975926;28;20562;-80
2023/10/21 00:36:32;;;;;;;5.10;1.65;;;;;;;20.77;53.26;97868.84;4976385;28;20062;-80
2023/10/21 00:38:58;;;;;;;4.95;1.30;;;;;;;20.75;53.00;97873.47;4994863;28;20031;-79
2023/10/21 00:41:24;;;;;;;4.15;0.90;;;;;;;20.74;53.33;97877.09;4977814;28;20433;-80
2023/10/21 00:43:50;;;;;;;4.72;1.63;;;;;;;20.75;53.15;97880.56;4995147;28;20053;-79
2023/10/21 00:46:18;;;;;;;5.43;1.40;;;;;;;20.68;53.18;97868.81;4993503;28;20516;-79
2023/10/21 00:48:47;;;;;;;5.05;1.17;;;;;;;20.68;53.17;97866.97;4995265;28;20433;-80
2023/10/21 00:51:13;;;;;;;2.97;1.17;;;;;;;20.72;53.22;97880.84;4985929;28;20510;-79
2023/10/21 00:53:39;;;;;;;4.90;1.25;;;;;;;20.72;53.05;97878.19;4975696;28;20027;-80
2023/10/21 00:56:08;;;;;;;5.30;1.38;;;;;;;20.71;53.14;97887.09;4957528;28;20085;-79
2023/10/21 00:58:35;;;;;;;4.25;1.10;;;;;;;20.72;53.02;97891.44;4967308;28;20058;-80
2023/10/21 01:01:06;;;;;;;4.85;1.00;;;;;;;20.72;52.96;97894.09;4956216;29;20035;-79
2023/10/21 01:03:31;;;;;;;3.63;1.38;;;;;;;20.73;53.07;97893.94;4956109;29;20442;-79
2023/10/21 01:05:57;;;;;;;4.43;1.23;;;;;;;20.72;53.16;97894.09;4955671;29;20023;-80
2023/10/21 01:08:23;;;;;;;5.43;1.40;;;;;;;20.72;53.08;97896.75;4985475;28;20484;-80
2023/10/21 01:10:48;;;;;;;4.30;1.08;;;;;;;20.72;52.91;97900.22;4994620;28;20390;-80
2023/10/21 01:13:14;;;;;;;3.90;1.40;;;;;;;20.71;53.04;97903.84;4994400;28;20532;-79
2023/10/21 01:15:39;;;;;;;3.25;1.00;;;;;;;20.68;52.99;97887.34;4994301;28;20110;-79
2023/10/21 01:18:08;;;;;;;4.57;1.20;;;;;;;20.68;53.00;97885.53;4981919;28;20042;-79
2023/10/21 01:20:35;;;;;;;3.63;0.98;;;;;;;20.64;52.96;97887.59;4974599;28;20486;-80
2023/10/21 01:23:00;;;;;;;3.47;1.20;;;;;;;20.64;53.03;97892.91;4974673;28;20039;-79
2023/10/21 01:25:27;;;;;;;3.78;1.17;;;;;;;20.61;53.07;97895.81;4973926;28;20098;-79
2023/10/21 01:27:55;;;;;;;4.65;0.98;;;;;;;20.61;52.92;97898.47;4983138;28;20116;-80
2023/10/21 01:30:21;;;;;;;5.35;1.20;;;;;;;20.63;53.09;97901.81;4974835;28;20041;-79
2023/10/21 01:32:48;;;;;;;3.45;0.75;;;;;;;20.62;53.20;97905.44;4974955;28;20031;-79
2023/10/21 01:35:17;;;;;;;4.53;1.10;;;;;;;20.59;52.97;97910.19;4974365;28;20388;-80
2023/10/21 01:37:44;;;;;;;5.30;1.10;;;;;;;20.57;53.04;97909.47;4974709;28;20023;-80
2023/10/21 01:40:10;;;;;;;2.38;0.90;;;;;;;20.61;52.78;97910.88;4974351;28;20037;-79
2023/10/21 01:42:37;;;;;;;5.05;1.45;;;;;;;20.60;53.16;97912.72;4974574;28;20066;-80
2023/10/21 01:45:04;;;;;;;4.45;1.38;;;;;;;20.63;52.93;97914.25;4974008;28;20038;-79
2023/10/21 01:47:30;;;;;;;3.60;0.98;;;;;;;20.60;52.61;97912.72;4981196;28;20047;-80
2023/10/21 01:49:56;;;;;;;3.95;0.90;;;;;;;20.55;53.12;97924.66;4993652;28;20053;-80
2023/10/21 01:52:21;;;;;;;2.63;0.70;;;;;;;20.58;52.86;97925.22;4960631;28;20023;-79
2023/10/21 01:54:46;;;;;;;3.15;0.80;;;;;;;20.54;52.83;97923.81;4955260;29;20530;-80
2023/10/21 01:57:12;;;;;;;4.25;1.20;;;;;;;20.58;52.83;97930.53;4946556;28;20019;-80
2023/10/21 01:59:40;;;;;;;3.75;0.85;;;;;;;20.58;52.70;97933.16;4993801;28;20110;-80
2023/10/21 02:02:06;;;;;;;3.60;0.93;;;;;;;20.53;53.01;97927.41;4976369;28;20033;-79
2023/10/21 02:04:32;;;;;;;3.08;0.95;;;;;;;20.50;52.89;97930.34;4993185;28;20030;-79
2023/10/21 02:06:58;;;;;;;5.28;1.00;;;;;;;20.52;52.95;97931.03;4990893;28;20034;-80
2023/10/21 02:09:23;;;;;;;3.92;1.02;;;;;;;20.48;53.00;97934.94;4956512;28;20410;-79
2023/10/21 02:11:49;;;;;;;3.80;0.98;;;;;;;20.52;52.89;97928.38;4974220;28;20034;-79
2023/10/21 02:14:14;;;;;;;3.33;0.85;;;;;;;20.51;52.78;97934.66;4974179;28;20038;-79
2023/10/21 02:16:40;;;;;;;3.42;0.80;;;;;;;20.54;52.83;97929.13;4974143;28;20019;-80
2023/10/21 02:19:06;;;;;;;3.47;0.90;;;;;;;20.56;52.64;97932.47;4937263;29;20052;-79
2023/10/21 02:21:31;;;;;;;3.38;1.20;;;;;;;20.58;52.71;97935.81;4954613;29;20027;-79
2023/10/21 02:23:56;;;;;;;2.78;0.80;;;;;;;20.55;52.61;97941.41;4961783;28;20497;-80
2023/10/21 02:26:22;;;;;;;3.95;1.10;;;;;;;20.55;52.69;97933.44;4973265;28;20030;-79
2023/10/21 02:28:47;;;;;;;2.20;0.63;;;;;;;20.56;52.68;97943.06;4963707;28;20397;-80
2023/10/21 02:31:13;;;;;;;3.33;1.10;;;;;;;20.55;52.58;97949.34;4973720;28;20062;-79
2023/10/21 02:33:38;;;;;;;4.10;1.10;;;;;;;20.50;52.65;97952.34;4955854;28;20030;-80
2023/10/21 02:36:04;;;;;;;4.55;0.98;;;;;;;20.53;52.64;97953.91;4956467;28;20069;-79
2023/10/21 02:38:30;;;;;;;5.65;0.98;;;;;;;20.53;52.55;97948.63;4988070;28;20569;-80
2023/10/21 02:40:55;;;;;;;4.80;1.00;;;;;;;20.51;52.89;97955.84;4992981;28;20031;-80
2023/10/21 02:43:21;;;;;;;3.00;0.88;;;;;;;20.50;52.77;97954.19;4993198;28;20065;-79
2023/10/21 02:45:48;;;;;;;2.47;0.50;;;;;;;20.47;52.72;97941.16;4992862;28;20032;-79
2023/10/21 02:48:14;;;;;;;3.58;0.90;;;;;;;20.49;52.87;97941.91;4980486;28;20084;-80
2023/10/21 02:50:39;;;;;;;4.38;1.38;;;;;;;20.46;52.81;97947.44;4973585;28;20026;-80
2023/10/21 02:53:05;;;;;;;2.00;0.73;;;;;;;20.47;52.79;97951.78;4958031;28;20442;-79
2023/10/21 02:55:30;;;;;;;3.33;0.80;;;;;;;20.49;52.69;97941.91;4954294;29;20118;-80
2023/10/21 02:57:56;;;;;;;3.60;1.00;;;;;;;20.48;52.46;97956.13;4973137;28;20031;-79
2023/10/21 03:00:22;;;;;;;3.22;0.88;;;;;;;20.48;52.65;97956.94;4992969;28;20270;-80
2023/10/21 03:02:51;;;;;;;3.63;1.08;;;;;;;20.44;52.80;97957.34;4992810;28;20088;-80
2023/10/21 03:05:17;;;;;;;2.75;0.80;;;;;;;20.46;52.80;97963.34;4992822;28;20121;-78
2023/10/21 03:07:43;;;;;;;4.57;0.60;;;;;;;20.45;52.78;97961.66;4985018;28;20030;-80
2023/10/21 03:10:10;;;;;;;3.17;0.63;;;;;;;20.46;52.65;97958.03;4976030;28;20026;-79
2023/10/21 03:12:35;;;;;;;1.75;0.73;;;;;;;20.47;52.46;97954.41;4977317;28;20042;-79
2023/10/21 03:15:01;;;;;;;3.03;0.80;;;;;;;20.42;52.61;97961.91;4977286;28;20475;-79
2023/10/21 03:17:27;;;;;;;4.22;1.08;;;;;;;20.38;52.44;97962.19;4964846;28;20496;-79
2023/10/21 03:19:55;;;;;;;2.83;0.75;;;;;;;20.39;52.69;97950.59;4996841;28;20068;-80
2023/10/21 03:22:21;;;;;;;3.60;0.85;;;;;;;20.32;52.62;97954.72;4996400;28;20073;-79
2023/10/21 03:24:47;;;;;;;3.47;0.80;;;;;;;20.37;52.75;97949.03;4993528;28;20030;-79
2023/10/21 03:27:15;;;;;;;2.63;0.70;;;;;;;20.39;52.38;97963.84;4979981;28;20030;-80
2023/10/21 03:29:40;;;;;;;2.78;0.77;;;;;;;20.39;52.29;97958.56;4979416;28;20022;-79
2023/10/21 03:32:06;;;;;;;3.72;0.80;;;;;;;20.39;52.21;97953.25;4976835;28;20033;-79
2023/10/21 03:34:33;;;;;;;3.35;0.70;;;;;;;20.41;52.48;97949.63;4947603;29;20027;-80
2023/10/21 03:36:59;;;;;;;5.28;1.30;;;;;;;20.36;52.55;97953.53;4959896;28;20083;-80
2023/10/21 03:39:26;;;;;;;3.33;0.77;;;;;;;20.38;52.45;97948.94;4959354;28;20035;-79
2023/10/21 03:41:52;;;;;;;2.40;0.82;;;;;;;20.35;52.31;97941.22;4957453;29;20024;-80
2023/10/21 03:44:17;;;;;;;3.15;0.63;;;;;;;20.35;52.20;97951.81;4957453;29;20027;-79
2023/10/21 03:46:42;;;;;;;3.42;1.00;;;;;;;20.36;52.30;97950.88;4956694;29;20097;-79
2023/10/21 03:49:08;;;;;;;3.03;0.73;;;;;;;20.33;52.43;97953.75;4993825;28;20038;-80
2023/10/21 03:51:33;;;;;;;2.28;0.63;;;;;;;20.36;52.31;97960.63;4975384;28;20035;-79
2023/10/21 03:53:58;;;;;;;3.17;0.82;;;;;;;20.35;52.31;97957.13;4957052;29;20054;-79
2023/10/21 03:56:24;;;;;;;3.15;0.85;;;;;;;20.37;51.82;97963.16;4957192;29;20038;-80
2023/10/21 03:58:49;;;;;;;3.40;0.55;;;;;;;20.36;52.27;97968.56;4957178;29;20027;-79
2023/10/21 04:01:15;;;;;;;2.45;0.65;;;;;;;20.35;52.05;97978.31;4956802;29;20446;-79
2023/10/21 04:03:40;;;;;;;3.13;0.77;;;;;;;20.32;51.93;97978.56;4939788;29;20138;-79
2023/10/21 04:06:08;;;;;;;3.20;0.70;;;;;;;20.31;51.94;97982.19;4957084;29;20601;-80
2023/10/21 04:08:34;;;;;;;3.45;0.80;;;;;;;20.31;52.07;97976.03;4983657;28;20030;-79
2023/10/21 04:10:59;;;;;;;2.88;0.90;;;;;;;20.33;52.07;97974.94;4995573;28;20448;-79
2023/10/21 04:13:25;;;;;;;4.43;0.88;;;;;;;20.33;51.82;97974.13;4976643;28;20027;-79
2023/10/21 04:15:50;;;;;;;4.43;1.02;;;;;;;20.33;52.15;97979.44;4970102;28;20030;-79
2023/10/21 04:18:16;;;;;;;2.10;0.45;;;;;;;20.33;51.89;97988.19;4968771;28;20042;-79
2023/10/21 04:20:41;;;;;;;3.85;0.80;;;;;;;20.35;51.84;97994.19;4975787;28;20117;-80
2023/10/21 04:23:07;;;;;;;2.33;0.63;;;;;;;20.26;51.74;98000.25;4976291;28;20030;-79
2023/10/21 04:25:32;;;;;;;2.90;0.57;;;;;;;20.25;52.04;97998.59;4975602;28;20082;-79
2023/10/21 04:27:58;;;;;;;1.92;0.60;;;;;;;20.25;52.31;98001.25;4981163;28;20034;-80
2023/10/21 04:30:24;;;;;;;1.88;0.55;;;;;;;20.20;52.06;98006.06;4978030;28;20042;-79
2023/10/21 04:32:50;;;;;;;4.68;1.02;;;;;;;20.19;52.17;98004.38;4975907;28;20117;-79
2023/10/21 04:35:16;;;;;;;2.00;0.70;;;;;;;20.21;51.96;97997.16;4975699;28;20177;-80
2023/10/21 04:37:41;;;;;;;1.02;0.40;;;;;;;20.23;52.21;98005.78;4981844;28;20229;-80
2023/10/21 04:40:08;;;;;;;3.95;1.10;;;;;;;20.21;52.16;98002.44;4995332;28;20065;-79
2023/10/21 04:42:34;;;;;;;1.75;0.60;;;;;;;20.24;52.11;98008.31;4995120;28;20037;-80
2023/10/21 04:44:59;;;;;;;1.45;0.60;;;;;;;20.20;52.05;98011.34;4994846;28;20023;-79
2023/10/21 04:47:25;;;;;;;2.22;0.82;;;;;;;20.24;51.89;98016.28;4994931;28;20080;-80
2023/10/21 04:49:50;;;;;;;2.00;0.50;;;;;;;20.24;52.18;98010.16;4977469;28;20034;-79
2023/10/21 04:52:18;;;;;;;2.47;0.52;;;;;;;20.19;52.28;98020.28;4963182;28;20031;-79
2023/10/21 04:54:44;;;;;;;2.50;0.70;;;;;;;20.24;52.11;98018.91;4956050;29;20451;-79
2023/10/21 04:57:10;;;;;;;1.50;0.52;;;;;;;20.26;51.90;98021.44;4958804;28;20031;-79
2023/10/21 04:59:36;;;;;;;2.35;0.68;;;;;;;20.27;52.25;98020.47;4994611;28;20022;-79
2023/10/21 05:02:03;;;;;;;1.63;0.52;;;;;;;20.28;52.10;98030.09;4977426;28;20040;-79
2023/10/21 05:04:29;;;;;;;2.45;0.50;;;;;;;20.24;51.75;98031.34;4994837;28;20031;-79
2023/10/21 05:06:55;;;;;;;2.88;0.77;;;;;;;20.18;51.97;98034.47;4994683;28;20033;-79
2023/10/21 05:09:20;;;;;;;3.20;0.63;;;;;;;20.16;52.16;98039.91;4975801;28;20418;-80
2023/10/21 05:11:46;;;;;;;2.72;0.80;;;;;;;20.16;52.17;98036.41;4975248;28;20118;-79
2023/10/21 05:14:11;;;;;;;1.60;0.50;;;;;;;20.18;51.98;98045.91;4974799;28;20031;-79
2023/10/21 05:16:37;;;;;;;0.93;0.45;;;;;;;20.19;51.84;98044.09;4975056;28;20435;-79
2023/10/21 05:19:04;;;;;;;2.13;0.60;;;;;;;20.19;51.96;98047.59;4991323;28;20080;-80
2023/10/21 05:21:30;;;;;;;2.40;0.50;;;;;;;20.18;51.96;98053.00;4994359;28;20109;-80
2023/10/21 05:23:56;;;;;;;1.67;0.50;;;;;;;20.22;51.79;98055.28;4994549;28;20113;-79
2023/10/21 05:26:21;;;;;;;3.45;0.70;;;;;;;20.23;51.92;98056.13;4994305;28;20470;-80
2023/10/21 05:28:48;;;;;;;2.50;0.70;;;;;;;20.24;51.94;98055.19;4979799;28;20467;-79
2023/10/21 05:31:13;;;;;;;3.70;0.57;;;;;;;20.24;51.82;98055.19;4956357;28;20023;-79
2023/10/21 05:33:40;;;;;;;2.15;0.40;;;;;;;20.24;51.86;98055.19;4974432;28;20033;-80
2023/10/21 05:36:06;;;;;;;2.38;0.68;;;;;;;20.25;51.96;98064.81;4974573;28;20035;-80
2023/10/21 05:38:32;;;;;;;2.15;0.60;;;;;;;20.23;51.85;98061.41;4986436;28;20037;-79
2023/10/21 05:40:58;;;;;;;1.23;0.52;;;;;;;20.23;51.74;98058.78;4994041;28;20664;-79
2023/10/21 05:43:23;;;;;;;1.48;0.45;;;;;;;20.24;51.94;98066.59;4993850;28;20085;-79
2023/10/21 05:45:49;;;;;;;2.22;0.50;;;;;;;20.23;51.69;98064.06;4993608;28;20022;-79
2023/10/21 05:48:14;;;;;;;3.25;0.80;;;;;;;20.21;51.81;98071.31;4993708;28;20027;-79
2023/10/21 05:50:40;;;;;;;3.00;0.75;;;;;;;20.21;51.98;98076.59;4990733;28;20023;-79
2023/10/21 05:53:05;;;;;;;1.70;0.60;;;;;;;20.17;52.00;98072.50;4974416;28;20082;-80
2023/10/21 05:55:31;;;;;;;1.60;0.52;;;;;;;20.10;52.23;98075.63;4971268;28;20525;-79
2023/10/21 05:57:56;;;;;;;1.30;0.40;;;;;;;20.07;52.29;98086.50;4968012;28;20019;-79
2023/10/21 06:00:22;;;;;;;1.00;0.50;;;;;;;20.08;52.16;98077.56;4983346;28;20030;-79
2023/10/21 06:02:47;;;;;;;2.33;0.50;;;;;;;20.01;52.04;98092.28;4974322;28;20030;-79
2023/10/21 06:05:14;;;;;;;1.83;0.50;;;;;;;20.04;52.25;98086.72;4974075;28;20106;-79
2023/10/21 06:07:43;;;;;;;2.83;0.40;;;;;;;20.03;52.23;98092.97;4978528;28;20018;-79
2023/10/21 06:10:09;;;;;;;1.50;0.50;;;;;;;19.98;52.13;98089.84;4993365;28;20142;-78
2023/10/21 06:12:34;;;;;;;2.10;0.57;;;;;;;19.94;52.12;98097.16;4993472;28;20109;-79
2023/10/21 06:15:00;;;;;;;2.13;0.55;;;;;;;19.98;52.27;98100.44;4993293;28;20030;-79
2023/10/21 06:17:26;;;;;;;1.05;0.55;;;;;;;19.98;52.17;98105.75;4977137;28;20027;-79
2023/10/21 06:19:52;;;;;;;1.60;0.43;;;;;;;20.03;52.27;98106.22;4987217;28;20038;-79
2023/10/21 06:22:18;;;;;;;2.28;0.65;;;;;;;20.00;52.18;98122.34;4974005;28;20390;-79
2023/10/21 06:24:43;;;;;;;3.40;0.77;;;;;;;20.05;52.27;98116.69;4973345;28;20114;-79
2023/10/21 06:27:09;;;;;;;1.65;0.40;;;;;;;20.09;51.95;98123.41;4981400;28;20034;-78
2023/10/21 06:29:37;;;;;;;2.22;0.60;;;;;;;20.09;51.99;98124.28;4954303;28;20031;-79
2023/10/21 06:32:06;;;;;;;1.45;0.57;;;;;;;20.05;51.90;98130.75;4954936;29;20042;-79
2023/10/21 06:34:33;;;;;;;2.63;0.70;;;;;;;19.98;52.16;98135.72;4954644;29;20463;-79
2023/10/21 06:36:58;;;;;;;2.90;0.60;;;;;;;19.95;52.21;98124.50;4954581;28;20046;-79
2023/10/21 06:39:24;;;;;;;2.75;0.70;;;;;;;19.94;52.29;98128.06;4954254;29;20114;-79
2023/10/21 06:41:50;;;;;;;2.28;0.68;;;;;;;19.91;52.01;98134.44;4954476;29;20028;-79
2023/10/21 06:44:16;;;;;;;2.45;0.50;;;;;;;19.90;52.25;98142.53;4954150;28;20035;-78
2023/10/21 06:46:42;;;;;;;3.10;0.55;;;;;;;19.82;52.36;98141.31;4953907;29;20056;-78
2023/10/21 06:49:09;;;;;;;3.55;0.70;;;;;;;19.89;52.36;98156.75;4985012;28;20593;-78
2023/10/21 06:51:35;;;;;;;2.10;0.50;;;;;;;19.95;52.31;98156.25;4974488;28;20078;-78
2023/10/21 06:54:01;;;;;;;2.10;0.68;;;;;;;19.95;52.27;98156.25;4960513;28;20077;-79
2023/10/21 06:56:27;;;;;;;2.45;0.70;;;;;;;19.98;51.98;98163.97;4973613;28;20027;-78
2023/10/21 06:58:52;;;;;;;1.85;0.40;;;;;;;19.97;52.12;98175.53;4976917;28;20030;-79
2023/10/21 07:01:18;;;;;;;2.65;0.77;;;;;;;19.96;52.03;98179.16;4983569;28;20023;-79
2023/10/21 07:03:43;;;;;;;3.17;0.47;;;;;;;19.88;51.98;98186.78;4972661;28;20023;-78
2023/10/21 07:06:09;;;;;;;2.30;0.80;;;;;;;19.81;52.18;98181.97;4973447;28;20077;-79
2023/10/21 07:08:35;;;;;;;2.55;0.65;;;;;;;19.88;52.27;98184.16;4952320;29;20066;-78
2023/10/21 07:11:00;;;;;;;5.15;1.17;;;;;;;19.89;52.16;98193.81;4972644;28;20026;-78
2023/10/21 07:13:25;;;;;;;3.15;0.75;;;;;;;19.88;52.34;98192.09;4992629;28;20029;-78
2023/10/21 07:15:51;;;;;;;3.55;0.50;;;;;;;19.90;52.33;98195.47;4986685;28;20395;-78
2023/10/21 07:18:17;;;;;;;2.28;0.68;;;;;;;19.91;52.22;98202.47;4973254;28;20062;-78
2023/10/21 07:20:42;;;;;;;1.88;0.70;;;;;;;19.86;52.52;98206.28;4980266;28;20033;-79
2023/10/21 07:23:12;;;;;;;1.90;0.60;;;;;;;19.83;52.30;98221.56;4992102;28;20034;-79
2023/10/21 07:25:39;;;;;;;4.43;1.10;;;;;;;19.91;52.23;98223.63;4985482;28;20042;-79
2023/10/21 07:28:04;;;;;;;1.75;0.70;;;;;;;19.91;52.29;98223.63;4972910;28;20398;-79
2023/10/21 07:30:30;;;;;;;1.05;0.60;;;;;;;19.89;52.16;98220.28;4978322;28;20037;-79
2023/10/21 07:32:56;;;;;;;3.05;0.90;;;;;;;19.90;52.37;98232.53;4992718;28;20018;-79
2023/10/21 07:35:21;;;;;;;2.13;0.52;;;;;;;19.93;52.41;98221.72;4992599;28;20490;-79
2023/10/21 07:37:47;;;;;;;2.38;0.77;;;;;;;19.95;52.22;98233.03;4992296;28;20050;-79
2023/10/21 07:40:13;;;;;;;3.05;0.65;;;;;;;19.96;52.29;98232.09;4989853;28;20402;-77
2023/10/21 07:42:38;;;;;;;2.20;0.70;;;;;;;19.89;52.41;98231.69;4973197;28;20027;-78
2023/10/21 07:45:05;;;;;;;2.53;0.77;;;;;;;19.89;52.39;98236.16;4972921;28;20030;-78
2023/10/21 07:47:30;;;;;;;2.58;0.75;;;;;;;19.86;52.07;98243.34;4972803;28;20047;-79
2023/10/21 07:49:56;;;;;;;2.92;0.70;;;;;;;19.90;52.30;98243.13;4972986;28;20034;-78
2023/10/21 07:52:22;;;;;;;5.80;1.08;;;;;;;19.90;52.15;98248.44;4959166;28;20032;-79
2023/10/21 07:54:47;;;;;;;2.90;0.82;;;;;;;19.85;52.13;98246.97;4954047;28;20053;-78
2023/10/21 07:57:13;;;;;;;1.70;0.65;;;;;;;19.84;52.53;98245.28;4939783;28;20464;-79
2023/10/21 07:59:38;;;;;;;4.20;1.00;;;;;;;19.84;52.32;98250.56;4957066;29;20546;-78
2023/10/21 08:02:05;;;;;;;2.25;0.80;;;;;;;19.86;52.42;98253.13;4991299;28;20034;-80
2023/10/21 08:04:31;;;;;;;5.13;1.00;;;;;;;19.86;52.59;98256.59;4984586;28;20099;-79
2023/10/21 08:06:57;;;;;;;3.50;1.00;;;;;;;19.86;52.65;98259.22;4976050;28;20097;-78
2023/10/21 08:09:23;;;;;;;1.80;0.70;;;;;;;19.88;52.46;98263.56;4959830;28;20478;-79
2023/10/21 08:11:48;;;;;;;2.13;0.70;;;;;;;19.88;52.33;98258.28;4991054;28;20441;-78
2023/10/21 08:14:13;;;;;;;3.08;0.80;;;;;;;19.89;52.59;98267.94;4995603;28;20463;-79
2023/10/21 08:16:39;;;;;;;2.40;0.60;;;;;;;19.88;52.53;98263.56;4995608;28;20028;-79
2023/10/21 08:19:05;;;;;;;3.55;0.77;;;;;;;19.86;52.38;98269.81;4995243;28;20026;-79
2023/10/21 08:21:31;;;;;;;4.25;1.00;;;;;;;19.86;52.33;98269.81;4982495;28;20038;-79
2023/10/21 08:23:57;;;;;;;2.75;0.80;;;;;;;19.88;52.36;98276.81;4976040;28;20026;-78
2023/10/21 08:26:24;;;;;;;3.10;0.80;;;;;;;19.90;52.21;98274.91;4976159;28;20538;-78
2023/10/21 08:28:49;;;;;;;4.78;0.93;;;;;;;19.88;52.30;98276.81;4975281;28;20069;-78
2023/10/21 08:31:15;;;;;;;2.97;0.93;;;;;;;19.91;52.27;98272.13;4968810;28;20034;-80
2023/10/21 08:33:40;;;;;;;2.97;0.63;;;;;;;19.90;52.05;98280.19;4972644;28;20030;-80
2023/10/21 08:36:16;;;;;;;4.05;0.60;;;;;;;19.90;51.97;98269.59;4964798;28;20038;-82
2023/10/21 08:38:42;;;;;;;5.78;1.08;;;;;;;19.91;52.03;98276.59;4980724;28;20089;-79
2023/10/21 08:41:14;;;;;;;3.67;1.02;;;;;;;19.91;51.88;98281.88;4975463;28;20031;-83
2023/10/21 08:43:45;;;;;;;2.42;0.70;;;;;;;19.88;51.96;98279.44;4983505;28;20031;-81
2023/10/21 08:46:13;;;;;;;3.75;0.75;;;;;;;19.89;51.85;98278.50;4974299;28;20197;-80
2023/10/21 08:48:39;;;;;;;3.83;0.75;;;;;;;19.87;51.57;98283.91;4971367;28;20513;-80
2023/10/21 08:51:08;;;;;;;4.57;1.08;;;;;;;19.89;51.78;98281.16;4970724;28;20063;-78
2023/10/21 08:53:38;;;;;;;3.95;1.40;;;;;;;19.85;51.83;98289.31;4975095;28;20482;-80
2023/10/21 08:56:03;;;;;;;4.97;1.00;;;;;;;19.85;51.96;98289.31;4977817;28;20058;-83
2023/10/21 08:58:29;;;;;;;4.25;1.10;;;;;;;19.84;51.74;98292.94;4975808;28;20058;-80
2023/10/21 09:00:55;;;;;;;4.95;0.93;;;;;;;19.88;51.41;98300.63;4977262;28;20046;-81
2023/10/21 09:03:20;;;;;;;6.18;1.10;;;;;;;19.85;51.43;98299.91;4978334;28;20074;-83
2023/10/21 09:06:11;;;;;;;7.57;1.05;;;;;;;19.85;51.34;98299.91;4972529;28;20057;-82
2023/10/21 09:08:40;;;;;;;2.83;0.65;;;;;;;19.82;51.66;98305.41;4966394;28;20035;-79
2023/10/21 09:11:10;;;;;;;5.28;0.85;;;;;;;19.85;51.45;98309.63;4971787;28;20031;-77
